Stallovarre — LHBG — position and weather

sailwx.info

Track history (hours):
 
Tides and Currents Weather Stations Pressure Air Temp Water Temp Dewpoint Dewpoint Depression Visibility Wind Speed Wind Dir Waves Ship Positions

Stallovarre

Last reported at 2017-Aug-22 14:00 UTC. Time now 2017-Aug-22 14:40 UTC.
Position N 59°12' E 005°55'.

Length 54 m.

MMSI: 257374400.

Date/timePositionNaut miles runAvg speedWind from/ knotsBaromVisibWave heightAir tempDewpointWater temp
2017-Aug-22 14:00N 59°12' E 005°55'2 4.5
2017-Aug-22 13:30N 59°10' E 005°53'4 7.8
2017-Aug-22 13:00N 59°14' E 005°53'2 3.2
2017-Aug-22 12:29N 59°13' E 005°55'3 6.8
2017-Aug-22 12:00N 59°10' E 005°53'3 6.8
2017-Aug-22 11:30N 59°14' E 005°52'2 4.1
2017-Aug-22 11:00N 59°12' E 005°56'4 8.6
2017-Aug-22 10:30N 59°08' E 005°54'5 9.0
2017-Aug-22 10:00N 59°13' E 005°52'2 3.9
2017-Aug-22 09:30N 59°14' E 005°55'3 5.2
2017-Aug-22 09:00N 59°11' E 005°54'3 5.6
2017-Aug-22 08:30N 59°09' E 005°54'2 4.4
2017-Aug-22 08:00N 59°11' E 005°54'4 7.2
2017-Aug-22 07:30N 59°14' E 005°56'2 5.0
2017-Aug-22 07:00N 59°13' E 005°52'0 0.4
2017-Aug-22 06:30N 59°13' E 005°52'2 4.1
2017-Aug-22 06:00N 59°14' E 005°55'2 4.8
2017-Aug-22 05:29N 59°12' E 005°54'3 7.0
2017-Aug-22 05:00N 59°08' E 005°54'4 7.4
2017-Aug-22 04:30N 59°12' E 005°55'2 4.2
2017-Aug-22 04:00N 59°14' E 005°55'2 3.5
2017-Aug-22 03:30N 59°14' E 005°51'0 0.0
2017-Aug-22 03:00N 59°14' E 005°51'0 0.0
2017-Aug-22 02:30N 59°14' E 005°51'0 0.0
2017-Aug-22 02:00N 59°14' E 005°51'0 0.0
2017-Aug-22 01:30N 59°14' E 005°51'0 0.0
2017-Aug-22 01:00N 59°14' E 005°51'0 0.0
2017-Aug-22 00:30N 59°14' E 005°51'0 0.0
2017-Aug-22 00:00N 59°14' E 005°51'0 0.0
2017-Aug-21 23:29N 59°14' E 005°51'0 0.0
2017-Aug-21 23:00N 59°14' E 005°51'0 0.0
2017-Aug-21 22:30N 59°14' E 005°51'0 0.0
2017-Aug-21 21:59N 59°14' E 005°51'4 8.8
2017-Aug-21 21:30N 59°10' E 005°53'0 0.0
2017-Aug-21 21:00N 59°10' E 005°53'1 1.4
2017-Aug-21 20:30N 59°10' E 005°53'3 6.2
2017-Aug-21 20:00N 59°13' E 005°52'3 6.4
2017-Aug-21 19:30N 59°10' E 005°53'0 0.1
2017-Aug-21 19:00N 59°10' E 005°53'0 0.0
2017-Aug-21 18:30N 59°10' E 005°53'0 0.1
2017-Aug-21 18:00N 59°10' E 005°53'4 8.8
2017-Aug-21 17:30N 59°13' E 005°59'5 9.8
2017-Aug-21 17:00N 59°14' E 006°08'1 1.9
2017-Aug-21 16:30N 59°14' E 006°10'2 4.9
2017-Aug-21 16:00N 59°15' E 006°06'0 0.0
2017-Aug-21 15:30N 59°15' E 006°06'2 3.8
2017-Aug-21 15:00N 59°14' E 006°09'1 2.7
2017-Aug-21 14:30N 59°16' E 006°10'0 0.0
2017-Aug-21 13:59N 59°16' E 006°10'1 2.8
2017-Aug-21 13:30N 59°14' E 006°09'1 2.8
2017-Aug-21 13:00N 59°16' E 006°10'0 0.0
2017-Aug-21 12:30N 59°16' E 006°10'0 0.0
2017-Aug-21 12:00N 59°16' E 006°10'0 0.1
2017-Aug-21 11:30N 59°16' E 006°10'1 2.7
2017-Aug-21 11:00N 59°14' E 006°09'1 2.7
2017-Aug-21 10:29N 59°16' E 006°10'0 0.0
2017-Aug-21 10:00N 59°16' E 006°10'0 0.0
2017-Aug-21 09:30N 59°16' E 006°10'0 0.0
2017-Aug-21 09:00N 59°16' E 006°10'0 0.0
2017-Aug-21 08:30N 59°16' E 006°10'1 2.7
2017-Aug-21 08:00N 59°14' E 006°09'1 2.7
2017-Aug-21 07:30N 59°16' E 006°10'0 0.1
2017-Aug-21 07:00N 59°16' E 006°10'0 0.0
2017-Aug-21 06:30N 59°16' E 006°10'2 4.0
2017-Aug-21 06:00N 59°15' E 006°06'2 3.2
2017-Aug-21 05:29N 59°14' E 006°09'1 2.7
2017-Aug-21 05:00N 59°16' E 006°10'1 2.6
2017-Aug-21 04:30N 59°15' E 006°08'1 2.7
2017-Aug-21 04:00N 59°15' E 006°06'0 0.0
2017-Aug-21 03:30N 59°15' E 006°06'2 4.8
2017-Aug-21 03:00N 59°14' E 006°10'0 0.0
2017-Aug-21 02:29N 59°14' E 006°10'0 0.0
2017-Aug-21 02:00N 59°14' E 006°10'0 0.0
2017-Aug-21 01:30N 59°14' E 006°10'0 0.0
2017-Aug-21 01:00N 59°14' E 006°10'0 0.0
2017-Aug-21 00:30N 59°14' E 006°10'0 0.0
2017-Aug-21 00:00N 59°14' E 006°10'0 0.0
2017-Aug-20 23:30N 59°14' E 006°10'0 0.0
2017-Aug-20 23:00N 59°14' E 006°10'0 0.0
2017-Aug-20 22:30N 59°14' E 006°10'0 0.0
2017-Aug-20 22:00N 59°14' E 006°10'0 0.0
2017-Aug-20 21:29N 59°14' E 006°10'0 0.0
2017-Aug-20 21:00N 59°14' E 006°10'0 0.0
2017-Aug-20 20:30N 59°14' E 006°10'0 0.0
2017-Aug-20 20:00N 59°14' E 006°10'2 3.2
2017-Aug-20 19:30N 59°16' E 006°10'0 0.0
2017-Aug-20 18:59N 59°16' E 006°10'1 2.9
2017-Aug-20 18:30N 59°14' E 006°09'1 2.8
2017-Aug-20 18:00N 59°16' E 006°10'0 0.0
2017-Aug-20 17:30N 59°16' E 006°10'0 0.0
2017-Aug-20 17:00N 59°16' E 006°10'1 2.8
2017-Aug-20 16:30N 59°15' E 006°08'1 2.7
2017-Aug-20 16:00N 59°16' E 006°10'0 0.0
2017-Aug-20 15:29N 59°16' E 006°10'1 2.6
2017-Aug-20 15:00N 59°15' E 006°08'1 2.6
2017-Aug-20 14:30N 59°16' E 006°10'0 0.0
2017-Aug-20 14:00N 59°16' E 006°10'1 2.6
2017-Aug-20 13:30N 59°15' E 006°08'1 2.5
2017-Aug-20 13:00N 59°16' E 006°10'0 0.1
2017-Aug-20 12:31N 59°16' E 006°10'0 0.1
2017-Aug-20 12:00N 59°16' E 006°10'0 0.0
2017-Aug-20 11:30N 59°16' E 006°10'1 2.4
2017-Aug-20 11:00N 59°15' E 006°09'1 2.4
2017-Aug-20 10:30N 59°16' E 006°10'0 0.0
2017-Aug-20 10:00N 59°16' E 006°10'0 0.0
2017-Aug-20 09:30N 59°16' E 006°10'0 0.0
2017-Aug-20 09:00N 59°16' E 006°10'0 0.0
2017-Aug-20 08:30N 59°16' E 006°10'1 2.6
2017-Aug-20 08:00N 59°14' E 006°09'1 2.7
2017-Aug-20 07:30N 59°16' E 006°10'0 0.0
2017-Aug-20 07:00N 59°16' E 006°10'0 0.1
2017-Aug-20 06:31N 59°16' E 006°10'2 4.0
2017-Aug-20 06:00N 59°15' E 006°06'2 4.8
2017-Aug-20 05:30N 59°14' E 006°10'0 0.0
2017-Aug-20 05:00N 59°14' E 006°10'0 0.0
2017-Aug-20 04:30N 59°14' E 006°10'0 0.0
2017-Aug-20 04:00N 59°14' E 006°10'0 0.0
2017-Aug-20 03:31N 59°14' E 006°10'0 0.0
2017-Aug-20 03:00N 59°14' E 006°10'0 0.0
2017-Aug-20 02:30N 59°14' E 006°10'0 0.0
2017-Aug-20 02:01N 59°14' E 006°10'0 0.0
2017-Aug-20 01:30N 59°14' E 006°10'0 0.0
2017-Aug-20 01:00N 59°14' E 006°10'0 0.0
2017-Aug-20 00:30N 59°14' E 006°10'0 0.0
2017-Aug-20 00:00N 59°14' E 006°10'0 0.0
2017-Aug-19 23:30N 59°14' E 006°10'0 0.0
2017-Aug-19 23:00N 59°14' E 006°10'0 0.0
2017-Aug-19 22:30N 59°14' E 006°10'0 0.0
2017-Aug-19 22:01N 59°14' E 006°10'0 0.0
2017-Aug-19 21:30N 59°14' E 006°10'0 0.0
2017-Aug-19 21:00N 59°14' E 006°10'0 0.0
2017-Aug-19 20:30N 59°14' E 006°10'0 0.0
2017-Aug-19 20:00N 59°14' E 006°10'2 3.3
2017-Aug-19 19:30N 59°16' E 006°10'0 0.0
2017-Aug-19 19:00N 59°16' E 006°10'1 2.6
2017-Aug-19 18:29N 59°14' E 006°09'1 2.7
2017-Aug-19 18:00N 59°16' E 006°10'0 0.1
2017-Aug-19 17:30N 59°16' E 006°10'0 0.1
2017-Aug-19 17:00N 59°16' E 006°10'1 2.6
2017-Aug-19 16:30N 59°14' E 006°09'1 2.7
2017-Aug-19 16:01N 59°16' E 006°10'0 0.0
2017-Aug-19 15:30N 59°16' E 006°10'1 2.5
2017-Aug-19 15:00N 59°14' E 006°09'1 1.3
2017-Aug-19 14:00N 59°16' E 006°10'1 2.6
2017-Aug-19 13:30N 59°15' E 006°09'1 2.6
2017-Aug-19 13:00N 59°16' E 006°10'0 0.0
2017-Aug-19 12:30N 59°16' E 006°10'0 0.0
2017-Aug-19 12:00N 59°16' E 006°10'0 0.0
2017-Aug-19 11:30N 59°16' E 006°10'1 2.8
2017-Aug-19 11:00N 59°14' E 006°09'1 2.7
2017-Aug-19 10:30N 59°16' E 006°10'0 0.0
2017-Aug-19 10:00N 59°16' E 006°10'0 0.0
2017-Aug-19 09:30N 59°16' E 006°10'0 0.0
2017-Aug-19 09:00N 59°16' E 006°10'0 0.0
2017-Aug-19 08:30N 59°16' E 006°10'1 2.6
2017-Aug-19 08:00N 59°15' E 006°08'1 2.7
2017-Aug-19 07:30N 59°16' E 006°10'0 0.0
2017-Aug-19 07:00N 59°16' E 006°10'0 0.1
2017-Aug-19 06:30N 59°16' E 006°10'2 3.3
2017-Aug-19 06:00N 59°15' E 006°07'1 1.8
2017-Aug-19 05:30N 59°15' E 006°08'1 2.6
2017-Aug-19 05:00N 59°16' E 006°10'1 2.5
2017-Aug-19 04:30N 59°15' E 006°08'0 0.9
2017-Aug-19 04:00N 59°14' E 006°09'1 1.0
2017-Aug-19 03:30N 59°14' E 006°10'0 0.0
2017-Aug-19 03:00N 59°14' E 006°10'0 0.0
2017-Aug-19 02:30N 59°14' E 006°10'0 0.0
2017-Aug-19 02:00N 59°14' E 006°10'0 0.0
2017-Aug-19 01:30N 59°14' E 006°10'0 0.0
2017-Aug-19 01:00N 59°14' E 006°10'0 0.0
2017-Aug-19 00:30N 59°14' E 006°10'0 0.0
2017-Aug-19 00:00N 59°14' E 006°10'0 0.0
2017-Aug-18 23:30N 59°14' E 006°10'0 0.0
2017-Aug-18 23:00N 59°14' E 006°10'0 0.0
2017-Aug-18 22:30N 59°14' E 006°10'0 0.0
2017-Aug-18 22:00N 59°14' E 006°10'0 0.0
2017-Aug-18 21:30N 59°14' E 006°10'0 0.0
2017-Aug-18 21:00N 59°14' E 006°10'0 0.0
2017-Aug-18 20:30N 59°14' E 006°10'0 0.0
2017-Aug-18 20:00N 59°14' E 006°10'2 3.3
2017-Aug-18 19:30N 59°16' E 006°10'0 0.0
2017-Aug-18 19:00N 59°16' E 006°10'1 2.4
2017-Aug-18 18:30N 59°15' E 006°09'1 2.4
2017-Aug-18 18:00N 59°16' E 006°10'0 0.0
2017-Aug-18 17:30N 59°16' E 006°10'0 0.1
2017-Aug-18 17:00N 59°16' E 006°10'2 3.3
2017-Aug-18 16:30N 59°14' E 006°10'1 2.2
2017-Aug-18 16:00N 59°15' E 006°08'4 7.9
2017-Aug-18 15:30N 59°11' E 006°03'611.6
2017-Aug-18 15:00N 59°07' E 005°56'1110.6
2017-Aug-18 14:00N 58°58' E 005°44'0 0.9
2017-Aug-18 13:30N 58°59' E 005°44'0 0.0
2017-Aug-18 13:00N 58°59' E 005°44'0 0.0
2017-Aug-18 12:30N 58°59' E 005°44'0 0.0
2017-Aug-18 12:00N 58°59' E 005°44'0 0.0
2017-Aug-18 11:30N 58°59' E 005°44'0 0.0
2017-Aug-18 11:00N 58°59' E 005°44'0 0.0
2017-Aug-18 10:30N 58°59' E 005°44'0 0.0
2017-Aug-18 10:00N 58°59' E 005°44'0 0.0
2017-Aug-18 09:30N 58°59' E 005°44'0 0.0
2017-Aug-18 09:00N 58°59' E 005°44'0 0.0
2017-Aug-18 08:30N 58°59' E 005°44'0 0.0
2017-Aug-18 08:00N 58°59' E 005°44'0 0.0
2017-Aug-18 07:30N 58°59' E 005°44'0 0.0
2017-Aug-18 07:00N 58°59' E 005°44'0 0.0
2017-Aug-18 06:30N 58°59' E 005°44'0 0.0
2017-Aug-18 06:00N 58°59' E 005°44'0 0.0
2017-Aug-18 05:30N 58°59' E 005°44'0 0.0
2017-Aug-18 05:00N 58°59' E 005°44'0 0.0
2017-Aug-18 04:30N 58°59' E 005°44'0 0.0
2017-Aug-18 04:00N 58°59' E 005°44'0 0.0
2017-Aug-18 03:30N 58°59' E 005°44'0 0.0
2017-Aug-18 03:00N 58°59' E 005°44'0 0.0
2017-Aug-18 02:30N 58°59' E 005°44'0 0.0
2017-Aug-18 02:00N 58°59' E 005°44'0 0.0
2017-Aug-18 01:30N 58°59' E 005°44'0 0.0
2017-Aug-18 01:00N 58°59' E 005°44'0 0.0
2017-Aug-18 00:30N 58°59' E 005°44'0 0.0
2017-Aug-18 00:00N 58°59' E 005°44'0 0.0
2017-Aug-17 23:30N 58°59' E 005°44'0 0.0
2017-Aug-17 23:00N 58°59' E 005°44'0 0.0
2017-Aug-17 22:30N 58°59' E 005°44'0 0.0
2017-Aug-17 22:00N 58°59' E 005°44'0 0.0
2017-Aug-17 21:30N 58°59' E 005°44'0 0.0
2017-Aug-17 21:00N 58°59' E 005°44'0 0.0
2017-Aug-17 20:30N 58°59' E 005°44'0 0.0
2017-Aug-17 20:00N 58°59' E 005°44'0 0.0
2017-Aug-17 19:30N 58°59' E 005°44'0 0.0
2017-Aug-17 19:00N 58°59' E 005°44'0 0.0
2017-Aug-17 18:30N 58°59' E 005°44'0 0.0
2017-Aug-17 18:00N 58°59' E 005°44'0 0.0
2017-Aug-17 17:30N 58°59' E 005°44'0 0.0
2017-Aug-17 17:00N 58°59' E 005°44'0 0.0
2017-Aug-17 16:30N 58°59' E 005°44'0 0.0
2017-Aug-17 16:00N 58°59' E 005°44'0 0.0
2017-Aug-17 15:30N 58°59' E 005°44'0 0.0
2017-Aug-17 15:00N 58°59' E 005°44'0 0.0
2017-Aug-17 14:30N 58°59' E 005°44'0 0.0
2017-Aug-17 14:00N 58°59' E 005°44'0 0.0
2017-Aug-17 13:30N 58°59' E 005°44'0 0.0
2017-Aug-17 13:00N 58°59' E 005°44'0 0.0
2017-Aug-17 12:30N 58°59' E 005°44'0 0.0
2017-Aug-17 12:00N 58°59' E 005°44'0 0.0
2017-Aug-17 11:30N 58°59' E 005°44'0 0.0
2017-Aug-17 11:00N 58°59' E 005°44'0 0.0
2017-Aug-17 10:30N 58°59' E 005°44'0 0.0
2017-Aug-17 10:00N 58°59' E 005°44'0 0.0
2017-Aug-17 09:30N 58°59' E 005°44'0 0.0
2017-Aug-17 09:00N 58°59' E 005°44'0 0.0
2017-Aug-17 08:30N 58°59' E 005°44'0 0.0
2017-Aug-17 08:00N 58°59' E 005°44'0 0.0
2017-Aug-17 07:30N 58°59' E 005°44'0 0.0
2017-Aug-17 07:00N 58°59' E 005°44'0 0.0
2017-Aug-17 06:30N 58°59' E 005°44'0 0.0
2017-Aug-17 06:00N 58°59' E 005°44'0 0.0
2017-Aug-17 05:30N 58°59' E 005°44'0 0.0
2017-Aug-17 05:00N 58°59' E 005°44'0 0.0
2017-Aug-17 04:30N 58°59' E 005°44'0 0.0
2017-Aug-17 04:00N 58°59' E 005°44'0 0.0
2017-Aug-17 03:30N 58°59' E 005°44'0 0.0
2017-Aug-17 03:00N 58°59' E 005°44'0 0.0
2017-Aug-17 02:30N 58°59' E 005°44'0 0.0
2017-Aug-17 02:00N 58°59' E 005°44'0 0.0
2017-Aug-17 01:30N 58°59' E 005°44'0 0.0
2017-Aug-17 01:00N 58°59' E 005°44'0 0.0
2017-Aug-17 00:30N 58°59' E 005°44'0 0.0
2017-Aug-17 00:00N 58°59' E 005°44'0 0.0
2017-Aug-16 23:30N 58°59' E 005°44'0 0.0
2017-Aug-16 23:00N 58°59' E 005°44'0 0.0
2017-Aug-16 22:30N 58°59' E 005°44'0 0.0
2017-Aug-16 22:00N 58°59' E 005°44'0 0.0
2017-Aug-16 21:30N 58°59' E 005°44'0 0.0
2017-Aug-16 21:00N 58°59' E 005°44'0 0.0
2017-Aug-16 20:30N 58°59' E 005°44'0 0.0
2017-Aug-16 20:00N 58°59' E 005°44'0 0.0
2017-Aug-16 19:30N 58°59' E 005°44'0 0.0
2017-Aug-16 19:00N 58°59' E 005°44'0 0.0
2017-Aug-16 18:30N 58°59' E 005°44'0 0.0
2017-Aug-16 18:00N 58°59' E 005°44'0 0.5
2017-Aug-16 17:30N 58°58' E 005°44'1 2.1
2017-Aug-16 17:00N 58°58' E 005°46'611.3
2017-Aug-16 16:30N 58°57' E 005°57'510.6
2017-Aug-16 16:00N 58°54' E 006°05'2 4.8
2017-Aug-16 15:30N 58°56' E 006°07'5 9.6
2017-Aug-16 14:59N 58°60' E 006°14'1012.9
2017-Aug-16 14:12N 59°02' E 006°33'5 2.1
2017-Aug-16 11:35N 59°01' E 006°23'112.2
2017-Aug-16 11:30N 59°01' E 006°21'611.9
2017-Aug-16 11:00N 58°58' E 006°10'510.1
2017-Aug-16 10:30N 58°54' E 006°03'611.9
2017-Aug-16 10:00N 58°58' E 005°55'510.4
2017-Aug-16 09:30N 58°58' E 005°45'0 0.2
2017-Aug-16 09:00N 58°58' E 005°44'  
Track history (hours):
 
Tides and Currents Weather Stations Pressure Air Temp Water Temp Dewpoint Dewpoint Depression Visibility Wind Speed Wind Dir Waves Ship Positions

Stallovarre

Last reported at 2017-Aug-22 14:00 UTC. Time now 2017-Aug-22 14:40 UTC.
Position N 59°12' E 005°55'.

Length 54 m.

MMSI: 257374400.

Date/timePositionNaut miles runAvg speedWind from/ knotsBaromVisibWave heightAir tempDewpointWater temp
2017-Aug-22 14:00N 59°12' E 005°55'2 4.5
2017-Aug-22 13:30N 59°10' E 005°53'4 7.8
2017-Aug-22 13:00N 59°14' E 005°53'2 3.2
2017-Aug-22 12:29N 59°13' E 005°55'3 6.8
2017-Aug-22 12:00N 59°10' E 005°53'3 6.8
2017-Aug-22 11:30N 59°14' E 005°52'2 4.1
2017-Aug-22 11:00N 59°12' E 005°56'4 8.6
2017-Aug-22 10:30N 59°08' E 005°54'5 9.0
2017-Aug-22 10:00N 59°13' E 005°52'2 3.9
2017-Aug-22 09:30N 59°14' E 005°55'3 5.2
2017-Aug-22 09:00N 59°11' E 005°54'3 5.6
2017-Aug-22 08:30N 59°09' E 005°54'2 4.4
2017-Aug-22 08:00N 59°11' E 005°54'4 7.2
2017-Aug-22 07:30N 59°14' E 005°56'2 5.0
2017-Aug-22 07:00N 59°13' E 005°52'0 0.4
2017-Aug-22 06:30N 59°13' E 005°52'2 4.1
2017-Aug-22 06:00N 59°14' E 005°55'2 4.8
2017-Aug-22 05:29N 59°12' E 005°54'3 7.0
2017-Aug-22 05:00N 59°08' E 005°54'4 7.4
2017-Aug-22 04:30N 59°12' E 005°55'2 4.2
2017-Aug-22 04:00N 59°14' E 005°55'2 3.5
2017-Aug-22 03:30N 59°14' E 005°51'0 0.0
2017-Aug-22 03:00N 59°14' E 005°51'0 0.0
2017-Aug-22 02:30N 59°14' E 005°51'0 0.0
2017-Aug-22 02:00N 59°14' E 005°51'0 0.0
2017-Aug-22 01:30N 59°14' E 005°51'0 0.0
2017-Aug-22 01:00N 59°14' E 005°51'0 0.0
2017-Aug-22 00:30N 59°14' E 005°51'0 0.0
2017-Aug-22 00:00N 59°14' E 005°51'0 0.0
2017-Aug-21 23:29N 59°14' E 005°51'0 0.0
2017-Aug-21 23:00N 59°14' E 005°51'0 0.0
2017-Aug-21 22:30N 59°14' E 005°51'0 0.0
2017-Aug-21 21:59N 59°14' E 005°51'4 8.8
2017-Aug-21 21:30N 59°10' E 005°53'0 0.0
2017-Aug-21 21:00N 59°10' E 005°53'1 1.4
2017-Aug-21 20:30N 59°10' E 005°53'3 6.2
2017-Aug-21 20:00N 59°13' E 005°52'3 6.4
2017-Aug-21 19:30N 59°10' E 005°53'0 0.1
2017-Aug-21 19:00N 59°10' E 005°53'0 0.0
2017-Aug-21 18:30N 59°10' E 005°53'0 0.1
2017-Aug-21 18:00N 59°10' E 005°53'4 8.8
2017-Aug-21 17:30N 59°13' E 005°59'5 9.8
2017-Aug-21 17:00N 59°14' E 006°08'1 1.9
2017-Aug-21 16:30N 59°14' E 006°10'2 4.9
2017-Aug-21 16:00N 59°15' E 006°06'0 0.0
2017-Aug-21 15:30N 59°15' E 006°06'2 3.8
2017-Aug-21 15:00N 59°14' E 006°09'1 2.7
2017-Aug-21 14:30N 59°16' E 006°10'0 0.0
2017-Aug-21 13:59N 59°16' E 006°10'1 2.8
2017-Aug-21 13:30N 59°14' E 006°09'1 2.8
2017-Aug-21 13:00N 59°16' E 006°10'0 0.0
2017-Aug-21 12:30N 59°16' E 006°10'0 0.0
2017-Aug-21 12:00N 59°16' E 006°10'0 0.1
2017-Aug-21 11:30N 59°16' E 006°10'1 2.7
2017-Aug-21 11:00N 59°14' E 006°09'1 2.7
2017-Aug-21 10:29N 59°16' E 006°10'0 0.0
2017-Aug-21 10:00N 59°16' E 006°10'0 0.0
2017-Aug-21 09:30N 59°16' E 006°10'0 0.0
2017-Aug-21 09:00N 59°16' E 006°10'0 0.0
2017-Aug-21 08:30N 59°16' E 006°10'1 2.7
2017-Aug-21 08:00N 59°14' E 006°09'1 2.7
2017-Aug-21 07:30N 59°16' E 006°10'0 0.1
2017-Aug-21 07:00N 59°16' E 006°10'0 0.0
2017-Aug-21 06:30N 59°16' E 006°10'2 4.0
2017-Aug-21 06:00N 59°15' E 006°06'2 3.2
2017-Aug-21 05:29N 59°14' E 006°09'1 2.7
2017-Aug-21 05:00N 59°16' E 006°10'1 2.6
2017-Aug-21 04:30N 59°15' E 006°08'1 2.7
2017-Aug-21 04:00N 59°15' E 006°06'0 0.0
2017-Aug-21 03:30N 59°15' E 006°06'2 4.8
2017-Aug-21 03:00N 59°14' E 006°10'0 0.0
2017-Aug-21 02:29N 59°14' E 006°10'0 0.0
2017-Aug-21 02:00N 59°14' E 006°10'0 0.0
2017-Aug-21 01:30N 59°14' E 006°10'0 0.0
2017-Aug-21 01:00N 59°14' E 006°10'0 0.0
2017-Aug-21 00:30N 59°14' E 006°10'0 0.0
2017-Aug-21 00:00N 59°14' E 006°10'0 0.0
2017-Aug-20 23:30N 59°14' E 006°10'0 0.0
2017-Aug-20 23:00N 59°14' E 006°10'0 0.0
2017-Aug-20 22:30N 59°14' E 006°10'0 0.0
2017-Aug-20 22:00N 59°14' E 006°10'0 0.0
2017-Aug-20 21:29N 59°14' E 006°10'0 0.0
2017-Aug-20 21:00N 59°14' E 006°10'0 0.0
2017-Aug-20 20:30N 59°14' E 006°10'0 0.0
2017-Aug-20 20:00N 59°14' E 006°10'2 3.2
2017-Aug-20 19:30N 59°16' E 006°10'0 0.0
2017-Aug-20 18:59N 59°16' E 006°10'1 2.9
2017-Aug-20 18:30N 59°14' E 006°09'1 2.8
2017-Aug-20 18:00N 59°16' E 006°10'0 0.0
2017-Aug-20 17:30N 59°16' E 006°10'0 0.0
2017-Aug-20 17:00N 59°16' E 006°10'1 2.8
2017-Aug-20 16:30N 59°15' E 006°08'1 2.7
2017-Aug-20 16:00N 59°16' E 006°10'0 0.0
2017-Aug-20 15:29N 59°16' E 006°10'1 2.6
2017-Aug-20 15:00N 59°15' E 006°08'1 2.6
2017-Aug-20 14:30N 59°16' E 006°10'0 0.0
2017-Aug-20 14:00N 59°16' E 006°10'1 2.6
2017-Aug-20 13:30N 59°15' E 006°08'1 2.5
2017-Aug-20 13:00N 59°16' E 006°10'0 0.1
2017-Aug-20 12:31N 59°16' E 006°10'0 0.1
2017-Aug-20 12:00N 59°16' E 006°10'0 0.0
2017-Aug-20 11:30N 59°16' E 006°10'1 2.4
2017-Aug-20 11:00N 59°15' E 006°09'1 2.4
2017-Aug-20 10:30N 59°16' E 006°10'0 0.0
2017-Aug-20 10:00N 59°16' E 006°10'0 0.0
2017-Aug-20 09:30N 59°16' E 006°10'0 0.0
2017-Aug-20 09:00N 59°16' E 006°10'0 0.0
2017-Aug-20 08:30N 59°16' E 006°10'1 2.6
2017-Aug-20 08:00N 59°14' E 006°09'1 2.7
2017-Aug-20 07:30N 59°16' E 006°10'0 0.0
2017-Aug-20 07:00N 59°16' E 006°10'0 0.1
2017-Aug-20 06:31N 59°16' E 006°10'2 4.0
2017-Aug-20 06:00N 59°15' E 006°06'2 4.8
2017-Aug-20 05:30N 59°14' E 006°10'0 0.0
2017-Aug-20 05:00N 59°14' E 006°10'0 0.0
2017-Aug-20 04:30N 59°14' E 006°10'0 0.0
2017-Aug-20 04:00N 59°14' E 006°10'0 0.0
2017-Aug-20 03:31N 59°14' E 006°10'0 0.0
2017-Aug-20 03:00N 59°14' E 006°10'0 0.0
2017-Aug-20 02:30N 59°14' E 006°10'0 0.0
2017-Aug-20 02:01N 59°14' E 006°10'0 0.0
2017-Aug-20 01:30N 59°14' E 006°10'0 0.0
2017-Aug-20 01:00N 59°14' E 006°10'0 0.0
2017-Aug-20 00:30N 59°14' E 006°10'0 0.0
2017-Aug-20 00:00N 59°14' E 006°10'0 0.0
2017-Aug-19 23:30N 59°14' E 006°10'0 0.0
2017-Aug-19 23:00N 59°14' E 006°10'0 0.0
2017-Aug-19 22:30N 59°14' E 006°10'0 0.0
2017-Aug-19 22:01N 59°14' E 006°10'0 0.0
2017-Aug-19 21:30N 59°14' E 006°10'0 0.0
2017-Aug-19 21:00N 59°14' E 006°10'0 0.0
2017-Aug-19 20:30N 59°14' E 006°10'0 0.0
2017-Aug-19 20:00N 59°14' E 006°10'2 3.3
2017-Aug-19 19:30N 59°16' E 006°10'0 0.0
2017-Aug-19 19:00N 59°16' E 006°10'1 2.6
2017-Aug-19 18:29N 59°14' E 006°09'1 2.7
2017-Aug-19 18:00N 59°16' E 006°10'0 0.1
2017-Aug-19 17:30N 59°16' E 006°10'0 0.1
2017-Aug-19 17:00N 59°16' E 006°10'1 2.6
2017-Aug-19 16:30N 59°14' E 006°09'1 2.7
2017-Aug-19 16:01N 59°16' E 006°10'0 0.0
2017-Aug-19 15:30N 59°16' E 006°10'1 2.5
2017-Aug-19 15:00N 59°14' E 006°09'1 1.3
2017-Aug-19 14:00N 59°16' E 006°10'1 2.6
2017-Aug-19 13:30N 59°15' E 006°09'1 2.6
2017-Aug-19 13:00N 59°16' E 006°10'0 0.0
2017-Aug-19 12:30N 59°16' E 006°10'0 0.0
2017-Aug-19 12:00N 59°16' E 006°10'0 0.0
2017-Aug-19 11:30N 59°16' E 006°10'1 2.8
2017-Aug-19 11:00N 59°14' E 006°09'1 2.7
2017-Aug-19 10:30N 59°16' E 006°10'0 0.0
2017-Aug-19 10:00N 59°16' E 006°10'0 0.0
2017-Aug-19 09:30N 59°16' E 006°10'0 0.0
2017-Aug-19 09:00N 59°16' E 006°10'0 0.0
2017-Aug-19 08:30N 59°16' E 006°10'1 2.6
2017-Aug-19 08:00N 59°15' E 006°08'1 2.7
2017-Aug-19 07:30N 59°16' E 006°10'0 0.0
2017-Aug-19 07:00N 59°16' E 006°10'0 0.1
2017-Aug-19 06:30N 59°16' E 006°10'2 3.3
2017-Aug-19 06:00N 59°15' E 006°07'1 1.8
2017-Aug-19 05:30N 59°15' E 006°08'1 2.6
2017-Aug-19 05:00N 59°16' E 006°10'1 2.5
2017-Aug-19 04:30N 59°15' E 006°08'0 0.9
2017-Aug-19 04:00N 59°14' E 006°09'1 1.0
2017-Aug-19 03:30N 59°14' E 006°10'0 0.0
2017-Aug-19 03:00N 59°14' E 006°10'0 0.0
2017-Aug-19 02:30N 59°14' E 006°10'0 0.0
2017-Aug-19 02:00N 59°14' E 006°10'0 0.0
2017-Aug-19 01:30N 59°14' E 006°10'0 0.0
2017-Aug-19 01:00N 59°14' E 006°10'0 0.0
2017-Aug-19 00:30N 59°14' E 006°10'0 0.0
2017-Aug-19 00:00N 59°14' E 006°10'0 0.0
2017-Aug-18 23:30N 59°14' E 006°10'0 0.0
2017-Aug-18 23:00N 59°14' E 006°10'0 0.0
2017-Aug-18 22:30N 59°14' E 006°10'0 0.0
2017-Aug-18 22:00N 59°14' E 006°10'0 0.0
2017-Aug-18 21:30N 59°14' E 006°10'0 0.0
2017-Aug-18 21:00N 59°14' E 006°10'0 0.0
2017-Aug-18 20:30N 59°14' E 006°10'0 0.0
2017-Aug-18 20:00N 59°14' E 006°10'2 3.3
2017-Aug-18 19:30N 59°16' E 006°10'0 0.0
2017-Aug-18 19:00N 59°16' E 006°10'1 2.4
2017-Aug-18 18:30N 59°15' E 006°09'1 2.4
2017-Aug-18 18:00N 59°16' E 006°10'0 0.0
2017-Aug-18 17:30N 59°16' E 006°10'0 0.1
2017-Aug-18 17:00N 59°16' E 006°10'2 3.3
2017-Aug-18 16:30N 59°14' E 006°10'1 2.2
2017-Aug-18 16:00N 59°15' E 006°08'4 7.9
2017-Aug-18 15:30N 59°11' E 006°03'611.6
2017-Aug-18 15:00N 59°07' E 005°56'1110.6
2017-Aug-18 14:00N 58°58' E 005°44'0 0.9
2017-Aug-18 13:30N 58°59' E 005°44'0 0.0
2017-Aug-18 13:00N 58°59' E 005°44'0 0.0
2017-Aug-18 12:30N 58°59' E 005°44'0 0.0
2017-Aug-18 12:00N 58°59' E 005°44'0 0.0
2017-Aug-18 11:30N 58°59' E 005°44'0 0.0
2017-Aug-18 11:00N 58°59' E 005°44'0 0.0
2017-Aug-18 10:30N 58°59' E 005°44'0 0.0
2017-Aug-18 10:00N 58°59' E 005°44'0 0.0
2017-Aug-18 09:30N 58°59' E 005°44'0 0.0
2017-Aug-18 09:00N 58°59' E 005°44'0 0.0
2017-Aug-18 08:30N 58°59' E 005°44'0 0.0
2017-Aug-18 08:00N 58°59' E 005°44'0 0.0
2017-Aug-18 07:30N 58°59' E 005°44'0 0.0
2017-Aug-18 07:00N 58°59' E 005°44'0 0.0
2017-Aug-18 06:30N 58°59' E 005°44'0 0.0
2017-Aug-18 06:00N 58°59' E 005°44'0 0.0
2017-Aug-18 05:30N 58°59' E 005°44'0 0.0
2017-Aug-18 05:00N 58°59' E 005°44'0 0.0
2017-Aug-18 04:30N 58°59' E 005°44'0 0.0
2017-Aug-18 04:00N 58°59' E 005°44'0 0.0
2017-Aug-18 03:30N 58°59' E 005°44'0 0.0
2017-Aug-18 03:00N 58°59' E 005°44'0 0.0
2017-Aug-18 02:30N 58°59' E 005°44'0 0.0
2017-Aug-18 02:00N 58°59' E 005°44'0 0.0
2017-Aug-18 01:30N 58°59' E 005°44'0 0.0
2017-Aug-18 01:00N 58°59' E 005°44'0 0.0
2017-Aug-18 00:30N 58°59' E 005°44'0 0.0
2017-Aug-18 00:00N 58°59' E 005°44'0 0.0
2017-Aug-17 23:30N 58°59' E 005°44'0 0.0
2017-Aug-17 23:00N 58°59' E 005°44'0 0.0
2017-Aug-17 22:30N 58°59' E 005°44'0 0.0
2017-Aug-17 22:00N 58°59' E 005°44'0 0.0
2017-Aug-17 21:30N 58°59' E 005°44'0 0.0
2017-Aug-17 21:00N 58°59' E 005°44'0 0.0
2017-Aug-17 20:30N 58°59' E 005°44'0 0.0
2017-Aug-17 20:00N 58°59' E 005°44'0 0.0
2017-Aug-17 19:30N 58°59' E 005°44'0 0.0
2017-Aug-17 19:00N 58°59' E 005°44'0 0.0
2017-Aug-17 18:30N 58°59' E 005°44'0 0.0
2017-Aug-17 18:00N 58°59' E 005°44'0 0.0
2017-Aug-17 17:30N 58°59' E 005°44'0 0.0
2017-Aug-17 17:00N 58°59' E 005°44'0 0.0
2017-Aug-17 16:30N 58°59' E 005°44'0 0.0
2017-Aug-17 16:00N 58°59' E 005°44'0 0.0
2017-Aug-17 15:30N 58°59' E 005°44'0 0.0
2017-Aug-17 15:00N 58°59' E 005°44'0 0.0
2017-Aug-17 14:30N 58°59' E 005°44'0 0.0
2017-Aug-17 14:00N 58°59' E 005°44'0 0.0
2017-Aug-17 13:30N 58°59' E 005°44'0 0.0
2017-Aug-17 13:00N 58°59' E 005°44'0 0.0
2017-Aug-17 12:30N 58°59' E 005°44'0 0.0
2017-Aug-17 12:00N 58°59' E 005°44'0 0.0
2017-Aug-17 11:30N 58°59' E 005°44'0 0.0
2017-Aug-17 11:00N 58°59' E 005°44'0 0.0
2017-Aug-17 10:30N 58°59' E 005°44'0 0.0
2017-Aug-17 10:00N 58°59' E 005°44'0 0.0
2017-Aug-17 09:30N 58°59' E 005°44'0 0.0
2017-Aug-17 09:00N 58°59' E 005°44'0 0.0
2017-Aug-17 08:30N 58°59' E 005°44'0 0.0
2017-Aug-17 08:00N 58°59' E 005°44'0 0.0
2017-Aug-17 07:30N 58°59' E 005°44'0 0.0
2017-Aug-17 07:00N 58°59' E 005°44'0 0.0
2017-Aug-17 06:30N 58°59' E 005°44'0 0.0
2017-Aug-17 06:00N 58°59' E 005°44'0 0.0
2017-Aug-17 05:30N 58°59' E 005°44'0 0.0
2017-Aug-17 05:00N 58°59' E 005°44'0 0.0
2017-Aug-17 04:30N 58°59' E 005°44'0 0.0
2017-Aug-17 04:00N 58°59' E 005°44'0 0.0
2017-Aug-17 03:30N 58°59' E 005°44'0 0.0
2017-Aug-17 03:00N 58°59' E 005°44'0 0.0
2017-Aug-17 02:30N 58°59' E 005°44'0 0.0
2017-Aug-17 02:00N 58°59' E 005°44'0 0.0
2017-Aug-17 01:30N 58°59' E 005°44'0 0.0
2017-Aug-17 01:00N 58°59' E 005°44'0 0.0
2017-Aug-17 00:30N 58°59' E 005°44'0 0.0
2017-Aug-17 00:00N 58°59' E 005°44'0 0.0
2017-Aug-16 23:30N 58°59' E 005°44'0 0.0
2017-Aug-16 23:00N 58°59' E 005°44'0 0.0
2017-Aug-16 22:30N 58°59' E 005°44'0 0.0
2017-Aug-16 22:00N 58°59' E 005°44'0 0.0
2017-Aug-16 21:30N 58°59' E 005°44'0 0.0
2017-Aug-16 21:00N 58°59' E 005°44'0 0.0
2017-Aug-16 20:30N 58°59' E 005°44'0 0.0
2017-Aug-16 20:00N 58°59' E 005°44'0 0.0
2017-Aug-16 19:30N 58°59' E 005°44'0 0.0
2017-Aug-16 19:00N 58°59' E 005°44'0 0.0
2017-Aug-16 18:30N 58°59' E 005°44'0 0.0
2017-Aug-16 18:00N 58°59' E 005°44'0 0.5
2017-Aug-16 17:30N 58°58' E 005°44'1 2.1
2017-Aug-16 17:00N 58°58' E 005°46'611.3
2017-Aug-16 16:30N 58°57' E 005°57'510.6
2017-Aug-16 16:00N 58°54' E 006°05'2 4.8
2017-Aug-16 15:30N 58°56' E 006°07'5 9.6
2017-Aug-16 14:59N 58°60' E 006°14'1012.9
2017-Aug-16 14:12N 59°02' E 006°33'5 2.1
2017-Aug-16 11:35N 59°01' E 006°23'112.2
2017-Aug-16 11:30N 59°01' E 006°21'611.9
2017-Aug-16 11:00N 58°58' E 006°10'510.1
2017-Aug-16 10:30N 58°54' E 006°03'611.9
2017-Aug-16 10:00N 58°58' E 005°55'510.4
2017-Aug-16 09:30N 58°58' E 005°45'0 0.2
2017-Aug-16 09:00N 58°58' E 005°44'  

Dump ship's entire track history